createdAt,value
2019-04-29T00:01:04.313Z,1.75
2019-04-29T00:06:07.713Z,1.50
2019-04-29T00:11:11.110Z,1.75
2019-04-29T00:16:21.682Z,1.70
2019-04-29T00:21:25.468Z,1.92
2019-04-29T00:26:28.811Z,1.90
2019-04-29T00:31:32.148Z,1.87
2019-04-29T00:36:37.107Z,1.60
2019-04-29T00:41:50.892Z,1.60
2019-04-29T00:46:54.281Z,1.40
2019-04-29T00:51:57.654Z,1.57
2019-04-29T00:57:01.063Z,1.65
2019-04-29T01:02:05.208Z,1.52
2019-04-29T01:07:08.619Z,1.95
2019-04-29T01:12:11.965Z,1.27
2019-04-29T01:17:15.302Z,1.50
2019-04-29T01:22:18.688Z,1.70
2019-04-29T01:27:23.632Z,1.92
2019-04-29T01:32:27.026Z,1.47
2019-04-29T01:37:34.778Z,1.62
2019-04-29T01:42:39.776Z,1.50
2019-04-29T01:47:43.130Z,1.50
2019-04-29T01:52:46.443Z,1.80
2019-04-29T01:57:49.774Z,1.60
2019-04-29T02:02:53.091Z,1.37
2019-04-29T02:07:56.415Z,1.47
2019-04-29T02:12:59.761Z,1.50
2019-04-29T02:18:03.072Z,1.57
2019-04-29T02:23:08.032Z,1.30
2019-04-29T02:28:11.342Z,1.72
2019-04-29T02:33:14.664Z,1.40
2019-04-29T02:43:35.180Z,1.30
2019-04-29T02:48:38.498Z,1.70
2019-04-29T02:53:41.802Z,1.50
2019-04-29T02:58:46.743Z,1.45
2019-04-29T03:03:54.644Z,1.40
2019-04-29T03:08:57.994Z,1.67
2019-04-29T03:14:01.311Z,1.30
2019-04-29T03:19:09.239Z,1.17
2019-04-29T03:24:12.612Z,1.50
2019-04-29T03:29:24.591Z,1.30
2019-04-29T03:34:27.891Z,1.47
2019-04-29T03:39:31.196Z,1.37
2019-04-29T03:44:34.507Z,1.60
2019-04-29T03:49:37.816Z,1.62
2019-04-29T03:54:41.122Z,1.85
2019-04-29T03:59:44.442Z,1.60
2019-04-29T04:04:55.205Z,1.70
2019-04-29T04:09:58.592Z,1.87
2019-04-29T04:15:01.904Z,1.75
2019-04-29T04:20:05.766Z,1.98
2019-04-29T04:25:09.107Z,3.75
2019-04-29T04:30:12.819Z,6.35
2019-04-29T04:35:16.227Z,8.15
2019-04-29T04:40:29.981Z,10.23
2019-04-29T04:45:33.318Z,15.43
2019-04-29T04:50:36.760Z,16.05
2019-04-29T04:55:41.736Z,16.20
2019-04-29T05:00:45.064Z,15.75
2019-04-29T05:05:48.415Z,13.75
2019-04-29T05:10:51.763Z,12.70
2019-04-29T05:15:55.085Z,10.50
2019-04-29T05:20:58.409Z,11.20
2019-04-29T05:26:01.717Z,10.03
2019-04-29T05:31:05.063Z,9.65
2019-04-29T05:36:10.052Z,10.05
2019-04-29T05:41:13.384Z,9.43
2019-04-29T05:46:29.942Z,8.03
2019-04-29T05:51:43.757Z,8.25
2019-04-29T05:56:47.113Z,8.13
2019-04-29T06:01:50.476Z,8.58
2019-04-29T06:06:53.777Z,7.42
2019-04-29T06:11:57.101Z,7.60
2019-04-29T06:17:02.975Z,7.05
2019-04-29T06:22:05.418Z,6.35
2019-04-29T06:27:08.776Z,6.37
2019-04-29T06:32:12.085Z,7.17
2019-04-29T06:37:15.537Z,6.42
2019-04-29T06:42:19.565Z,6.60
2019-04-29T06:47:23.754Z,6.47
2019-04-29T06:52:27.059Z,5.50
2019-04-29T06:57:30.397Z,6.30
2019-04-29T07:02:33.747Z,5.67
2019-04-29T07:07:37.085Z,5.55
2019-04-29T07:12:42.826Z,5.33
2019-04-29T07:17:46.372Z,4.90
2019-04-29T07:22:49.681Z,5.50
2019-04-29T07:27:52.982Z,4.58
2019-04-29T07:32:56.300Z,4.55
2019-04-29T07:37:59.597Z,4.83
2019-04-29T07:43:07.367Z,4.12
2019-04-29T07:48:08.005Z,4.00
2019-04-29T07:53:11.301Z,4.75
2019-04-29T07:58:14.622Z,4.42
2019-04-29T08:03:17.945Z,3.67
2019-04-29T08:08:22.804Z,3.70
2019-04-29T08:13:26.211Z,3.50
2019-04-29T08:18:29.509Z,3.70
2019-04-29T08:23:40.886Z,3.92
2019-04-29T08:28:37.848Z,3.30
2019-04-29T08:33:42.470Z,3.52
2019-04-29T08:38:46.174Z,2.80
2019-04-29T08:43:52.375Z,3.33
2019-04-29T08:48:56.141Z,3.10
2019-04-29T08:53:59.468Z,2.72
2019-04-29T08:59:02.766Z,2.92
2019-04-29T09:04:06.065Z,2.80
2019-04-29T09:09:27.991Z,3.05
2019-04-29T09:14:14.400Z,2.80
2019-04-29T09:19:17.711Z,2.62
2019-04-29T09:24:21.028Z,2.35
2019-04-29T09:29:36.989Z,2.83
2019-04-29T09:34:40.407Z,2.60
2019-04-29T09:39:45.370Z,2.27
2019-04-29T09:45:05.147Z,2.05
2019-04-29T09:50:08.455Z,2.25
2019-04-29T09:55:11.824Z,2.30
2019-04-29T10:00:36.269Z,2.05
2019-04-29T10:05:47.879Z,2.42
2019-04-29T10:10:51.185Z,1.87
2019-04-29T10:16:00.434Z,1.98
2019-04-29T10:21:05.639Z,2.25
2019-04-29T10:26:09.014Z,2.10
2019-04-29T10:31:13.195Z,2.10
2019-04-29T10:36:20.564Z,1.85
2019-04-29T10:41:25.727Z,1.80
2019-04-29T10:46:46.595Z,2.10
2019-04-29T10:51:50.001Z,1.80
2019-04-29T10:56:53.395Z,2.00
2019-04-29T11:02:05.310Z,1.82
2019-04-29T11:07:19.099Z,1.65
2019-04-29T11:12:20.608Z,1.70
2019-04-29T11:17:25.547Z,1.62
2019-04-29T11:22:33.951Z,1.82
2019-04-29T11:27:48.714Z,1.50
2019-04-29T11:32:53.644Z,1.57
2019-04-29T11:37:59.851Z,1.70
2019-04-29T11:43:02.108Z,1.77
2019-04-29T11:48:05.701Z,1.30
2019-04-29T11:53:10.676Z,1.30
2019-04-29T11:58:24.233Z,1.50
2019-04-29T12:03:32.030Z,1.40
2019-04-29T12:08:35.385Z,1.50
2019-04-29T12:13:58.894Z,1.55
2019-04-29T12:19:08.583Z,1.52
2019-04-29T12:24:12.992Z,1.52
2019-04-29T12:29:18.183Z,1.72
2019-04-29T12:34:29.176Z,1.25
2019-04-29T12:39:49.020Z,1.00
2019-04-29T12:44:59.657Z,1.32
2019-04-29T12:50:03.033Z,1.40
2019-04-29T12:55:19.866Z,1.85
2019-04-29T13:00:14.013Z,1.77
2019-04-29T13:05:19.087Z,1.75
2019-04-29T13:10:24.019Z,1.20
2019-04-29T13:15:34.726Z,1.10
2019-04-29T13:20:41.523Z,1.17
2019-04-29T13:25:43.212Z,1.20
2019-04-29T13:30:46.898Z,1.25
2019-04-29T13:35:50.292Z,1.20
2019-04-29T13:41:11.926Z,1.30
2019-04-29T13:46:09.084Z,1.37
2019-04-29T13:51:36.016Z,1.20
2019-04-29T13:56:54.241Z,1.15
2019-04-29T14:01:58.321Z,1.60
2019-04-29T14:06:56.648Z,1.00
2019-04-29T14:12:01.398Z,1.15
2019-04-29T14:17:17.172Z,0.90
2019-04-29T14:22:03.442Z,1.30
2019-04-29T14:27:06.771Z,1.27
2019-04-29T14:32:10.099Z,1.30
2019-04-29T14:37:25.032Z,1.20
2019-04-29T14:42:32.013Z,0.82
2019-04-29T14:47:42.380Z,1.50
2019-04-29T14:52:49.513Z,1.10
2019-04-29T14:57:50.770Z,1.20
2019-04-29T15:02:55.811Z,1.10
2019-04-29T15:07:59.273Z,1.77
2019-04-29T15:13:20.147Z,1.90
2019-04-29T15:18:16.176Z,1.75
2019-04-29T15:23:28.367Z,1.70
2019-04-29T15:28:24.191Z,1.70
2019-04-29T15:33:30.632Z,1.57
2019-04-29T15:38:32.583Z,1.95
2019-04-29T15:43:47.250Z,2.10
2019-04-29T15:48:41.305Z,2.42
2019-04-29T15:53:44.698Z,1.60
2019-04-29T15:58:48.459Z,1.47
2019-04-29T16:03:54.840Z,1.80
2019-04-29T16:09:00.162Z,1.52
2019-04-29T16:14:09.577Z,1.98
2019-04-29T16:19:10.476Z,1.80
2019-04-29T16:24:26.334Z,1.77
2019-04-29T16:29:19.598Z,1.85
2019-04-29T16:34:23.617Z,1.82
2019-04-29T16:39:26.925Z,1.80
2019-04-29T16:44:36.025Z,2.25
2019-04-29T16:49:35.405Z,2.35
2019-04-29T16:54:38.749Z,1.98
2019-04-29T16:59:42.051Z,2.17
2019-04-29T17:04:45.738Z,2.55
2019-04-29T17:09:50.668Z,3.02
2019-04-29T17:15:03.976Z,2.25
2019-04-29T17:19:59.371Z,2.10
2019-04-29T17:25:02.920Z,2.45
2019-04-29T17:30:24.022Z,2.50
2019-04-29T17:35:29.444Z,2.33
2019-04-29T17:40:33.290Z,2.40
2019-04-29T17:45:38.272Z,2.52
2019-04-29T17:50:46.814Z,2.55
2019-04-29T17:55:49.961Z,2.67
2019-04-29T18:01:10.627Z,2.10
2019-04-29T18:06:24.218Z,2.55
2019-04-29T18:11:25.079Z,2.70
2019-04-29T18:16:30.121Z,2.77
2019-04-29T18:21:50.891Z,2.58
2019-04-29T18:26:58.564Z,2.45
2019-04-29T18:32:05.191Z,2.62
2019-04-29T18:37:07.056Z,3.60
2019-04-29T18:42:10.347Z,4.45
2019-04-29T18:47:21.971Z,4.60
2019-04-29T18:52:26.004Z,4.97
2019-04-29T18:57:30.089Z,4.92
2019-04-29T19:02:32.147Z,5.62
2019-04-29T19:07:37.257Z,4.50
2019-04-29T19:12:39.419Z,4.60
2019-04-29T19:17:42.829Z,4.25
2019-04-29T19:22:47.346Z,4.17
2019-04-29T19:27:50.780Z,3.72
2019-04-29T19:33:00.447Z,4.40
2019-04-29T19:37:59.166Z,4.10
2019-04-29T19:43:02.511Z,3.77
2019-04-29T19:48:06.026Z,3.37
2019-04-29T19:53:09.303Z,3.60
2019-04-29T19:58:13.488Z,4.25
2019-04-29T20:03:23.925Z,3.98
2019-04-29T20:08:41.300Z,3.40
2019-04-29T20:13:31.915Z,3.52
2019-04-29T20:18:40.460Z,3.67
2019-04-29T20:23:41.998Z,3.27
2019-04-29T20:28:45.957Z,3.33
2019-04-29T20:33:49.619Z,3.15
2019-04-29T20:38:53.170Z,3.05
2019-04-29T20:43:56.676Z,3.22
2019-04-29T20:49:01.830Z,3.85
2019-04-29T20:54:15.909Z,4.28
2019-04-29T20:59:15.512Z,3.58
2019-04-29T21:04:31.194Z,3.60
2019-04-29T21:09:28.797Z,3.90
2019-04-29T21:14:33.988Z,3.87
2019-04-29T21:19:36.408Z,3.75
2019-04-29T21:24:39.801Z,4.37
2019-04-29T21:29:43.142Z,3.50
2019-04-29T21:35:03.233Z,3.37
2019-04-29T21:40:14.793Z,3.80
2019-04-29T21:45:15.536Z,3.20
2019-04-29T21:50:20.133Z,3.60
2019-04-29T21:55:25.797Z,3.75
2019-04-29T22:00:28.608Z,3.72
2019-04-29T22:05:31.973Z,3.17
2019-04-29T22:10:36.798Z,3.25
2019-04-29T22:15:42.395Z,3.12
2019-04-29T22:20:45.288Z,3.35
2019-04-29T22:25:48.635Z,3.60
2019-04-29T22:30:54.699Z,3.25
2019-04-29T22:35:57.025Z,3.45
2019-04-29T22:41:01.992Z,3.02
2019-04-29T22:46:09.386Z,2.80
2019-04-29T22:51:17.091Z,3.50
2019-04-29T22:56:16.011Z,3.47
2019-04-29T23:01:19.480Z,3.20
2019-04-29T23:06:22.810Z,2.72
2019-04-29T23:11:26.311Z,3.40
2019-04-29T23:16:31.487Z,2.85
2019-04-29T23:21:50.965Z,3.45
2019-04-29T23:31:59.613Z,3.42
2019-04-29T23:37:03.365Z,2.77
2019-04-29T23:42:12.022Z,2.95
2019-04-29T23:47:12.216Z,2.70
2019-04-29T23:52:15.982Z,2.87
2019-04-29T23:57:35.893Z,2.77
